Time;durP1;ratioP1;P1;durP2;ratioP2;P2;SDS_P1;SDS_P2;PMS_P1;PMS_P2;Temp;Humidity;BMP_temperature;BMP_pressure;BME280_temperature;BME280_humidity;BME280_pressure;Samples;Min_cycle;Max_cycle;Signal;HPM_P1;HPM_P2
2022/07/05 00:02:24;;;;;;;;;;;;;;;17.73;98.29;99373.94;1725882;82;20071;-68
2022/07/05 00:04:50;;;;;;;;;;;;;;;17.68;98.39;99363.13;1717502;83;20087;-69
2022/07/05 00:07:18;;;;;;;;;;;;;;;17.66;98.60;99366.86;1717480;83;21705;-68
2022/07/05 00:09:56;;;;;;;;;;;;;;;17.62;98.66;99365.95;1717262;82;20140;-68
2022/07/05 00:12:25;;;;;;;;;;;;;;;17.56;99.13;99372.97;1717713;83;20084;-68
2022/07/05 00:14:52;;;;;;;;;;;;;;;17.53;99.31;99362.59;1717473;82;20840;-68
2022/07/05 00:17:20;;;;;;;;;;;;;;;17.48;99.38;99369.25;1717496;82;20142;-69
2022/07/05 00:19:47;;;;;;;;;;;;;;;17.45;99.58;99368.59;1717314;83;21026;-68
2022/07/05 00:22:13;;;;;;;;;;;;;;;17.44;99.82;99373.12;1717520;83;20095;-68
2022/07/05 00:24:40;;;;;;;;;;;;;;;17.38;100.00;99367.64;1717822;83;20147;-68
2022/07/05 00:27:06;;;;;;;;;;;;;;;17.34;100.00;99366.18;1717697;83;20091;-68
2022/07/05 00:29:33;;;;;;;;;;;;;;;17.33;100.00;99370.73;1717444;83;20119;-69
2022/07/05 00:31:59;;;;;;;;;;;;;;;17.33;100.00;99374.90;1717724;83;21729;-68
2022/07/05 00:34:26;;;;;;;;;;;;;;;17.32;100.00;99372.70;1717523;83;20111;-68
2022/07/05 00:36:52;;;;;;;;;;;;;;;17.31;100.00;99378.63;1717510;83;20120;-68
2022/07/05 00:39:18;;;;;;;;;;;;;;;17.29;100.00;99374.02;1717590;83;20436;-68
2022/07/05 00:41:45;;;;;;;;;;;;;;;17.26;100.00;99371.97;1717447;83;20095;-68
2022/07/05 00:44:11;;;;;;;;;;;;;;;17.23;100.00;99375.47;1717613;82;20737;-68
2022/07/05 00:46:39;;;;;;;;;;;;;;;17.18;100.00;99375.18;1717256;83;20115;-68
2022/07/05 00:49:05;;;;;;;;;;;;;;;17.13;100.00;99373.50;1717460;83;20083;-68
2022/07/05 00:51:34;;;;;;;;;;;;;;;17.12;100.00;99373.28;1687184;83;20133;-68
2022/07/05 00:54:01;;;;;;;;;;;;;;;17.10;100.00;99372.83;1716575;82;20139;-68
2022/07/05 00:56:27;;;;;;;;;;;;;;;17.09;100.00;99375.97;1726312;82;21099;-68
2022/07/05 00:58:53;;;;;;;;;;;;;;;17.06;100.00;99375.31;1708859;84;20095;-68
2022/07/05 01:01:20;;;;;;;;;;;;;;;17.05;100.00;99380.05;1709116;84;20115;-68
2022/07/05 01:03:46;;;;;;;;;;;;;;;17.03;100.00;99382.97;1708912;84;20171;-68
2022/07/05 01:06:13;;;;;;;;;;;;;;;17.01;100.00;99379.17;1708997;84;20092;-68
2022/07/05 01:08:41;;;;;;;;;;;;;;;16.99;100.00;99380.11;1709292;84;21735;-68
2022/07/05 01:11:09;;;;;;;;;;;;;;;16.96;100.00;99376.68;1709009;84;20447;-68
2022/07/05 01:13:36;;;;;;;;;;;;;;;16.95;100.00;99378.43;1708879;84;20088;-68
2022/07/05 01:16:04;;;;;;;;;;;;;;;16.93;100.00;99377.41;1709118;84;20083;-68
2022/07/05 01:18:32;;;;;;;;;;;;;;;16.91;100.00;99374.77;1708942;84;20099;-68
2022/07/05 01:20:59;;;;;;;;;;;;;;;16.88;100.00;99383.81;1708882;84;21078;-68
2022/07/05 01:23:32;;;;;;;;;;;;;;;16.86;100.00;99380.02;1709431;84;20157;-68
2022/07/05 01:25:59;;;;;;;;;;;;;;;16.90;100.00;99375.94;1708986;84;20099;-68
2022/07/05 01:28:26;;;;;;;;;;;;;;;16.86;100.00;99377.23;1709032;84;20095;-68
2022/07/05 01:30:52;;;;;;;;;;;;;;;16.84;100.00;99380.95;1709248;84;20171;-68
2022/07/05 01:33:19;;;;;;;;;;;;;;;16.80;100.00;99385.03;1708986;84;22194;-68
2022/07/05 01:35:45;;;;;;;;;;;;;;;16.76;100.00;99383.34;1709128;84;20095;-68
2022/07/05 01:38:12;;;;;;;;;;;;;;;16.77;100.00;99379.41;1709111;84;20083;-68
2022/07/05 01:40:39;;;;;;;;;;;;;;;16.78;100.00;99380.44;1709001;84;20119;-68
2022/07/05 01:43:05;;;;;;;;;;;;;;;16.82;100.00;99381.90;1708985;84;20116;-68
2022/07/05 01:45:39;;;;;;;;;;;;;;;16.84;100.00;99383.73;1689857;84;41048;-68
2022/07/05 01:48:09;;;;;;;;;;;;;;;16.82;100.00;99379.94;1708970;84;20182;-68
2022/07/05 01:50:42;;;;;;;;;;;;;;;16.79;100.00;99382.04;1708779;83;20132;-68
2022/07/05 01:53:13;;;;;;;;;;;;;;;16.78;100.00;99383.20;1708073;84;20120;-67
2022/07/05 01:55:40;;;;;;;;;;;;;;;16.74;100.00;99385.13;1709173;84;20112;-68
2022/07/05 01:58:07;;;;;;;;;;;;;;;16.71;100.00;99385.03;1709399;84;21131;-67
2022/07/05 02:00:43;;;;;;;;;;;;;;;16.65;100.00;99385.89;1709424;84;20096;-67
2022/07/05 02:03:10;;;;;;;;;;;;;;;16.62;100.00;99385.20;1708982;83;20163;-68
2022/07/05 02:05:36;;;;;;;;;;;;;;;16.59;100.00;99383.14;1709804;84;21051;-68
2022/07/05 02:08:04;;;;;;;;;;;;;;;16.57;100.00;99386.05;1709416;83;20083;-68
2022/07/05 02:10:30;;;;;;;;;;;;;;;16.56;100.00;99385.83;1709541;84;21209;-67
2022/07/05 02:12:57;;;;;;;;;;;;;;;16.53;100.00;99385.16;1687197;84;20095;-68
2022/07/05 02:15:23;;;;;;;;;;;;;;;16.50;100.00;99380.56;1729571;82;20426;-68
2022/07/05 02:17:51;;;;;;;;;;;;;;;16.48;100.00;99379.31;1737105;82;20123;-68
2022/07/05 02:20:17;;;;;;;;;;;;;;;16.43;100.00;99381.77;1732906;81;20144;-68
2022/07/05 02:22:45;;;;;;;;;;;;;;;16.43;100.00;99380.97;1727935;82;21736;-67
2022/07/05 02:25:12;;;;;;;;;;;;;;;16.44;100.00;99387.53;1721991;82;20076;-68
2022/07/05 02:27:39;;;;;;;;;;;;;;;16.45;100.00;99386.95;1709538;84;20465;-68
2022/07/05 02:30:07;;;;;;;;;;;;;;;16.44;100.00;99394.46;1709573;84;20130;-72
2022/07/05 02:32:37;;;;;;;;;;;;;;;16.44;100.00;99401.39;1709649;83;20423;-69
2022/07/05 02:35:05;;;;;;;;;;;;;;;16.45;100.00;99403.58;1709699;84;21147;-69
2022/07/05 02:37:32;;;;;;;;;;;;;;;16.44;100.00;99397.23;1709439;84;20568;-69
2022/07/05 02:39:59;;;;;;;;;;;;;;;16.45;100.00;99396.66;1709527;84;20119;-70
2022/07/05 02:42:25;;;;;;;;;;;;;;;16.47;100.00;99395.71;1709876;84;20693;-68
2022/07/05 02:44:52;;;;;;;;;;;;;;;16.49;100.00;99402.50;1709678;84;20123;-68
2022/07/05 02:47:19;;;;;;;;;;;;;;;16.51;100.00;99404.92;1687359;84;21802;-68
2022/07/05 02:49:46;;;;;;;;;;;;;;;16.54;100.00;99405.59;1709779;84;20072;-68
2022/07/05 02:52:12;;;;;;;;;;;;;;;16.59;100.00;99405.89;1709668;84;20120;-68
2022/07/05 02:54:40;;;;;;;;;;;;;;;16.64;100.00;99402.85;1709376;84;20194;-68
2022/07/05 02:57:06;;;;;;;;;;;;;;;16.71;100.00;99405.24;1709717;84;20127;-70
2022/07/05 02:59:34;;;;;;;;;;;;;;;16.81;100.00;99403.28;1709535;84;21151;-68
2022/07/05 03:02:01;;;;;;;;;;;;;;;16.89;100.00;99390.38;1709665;84;20111;-68
2022/07/05 03:04:27;;;;;;;;;;;;;;;16.96;100.00;99395.28;1709628;84;20176;-68
2022/07/05 03:06:55;;;;;;;;;;;;;;;17.01;100.00;99397.20;1709597;84;20652;-68
2022/07/05 03:09:24;;;;;;;;;;;;;;;17.08;100.00;99398.73;1709563;83;20160;-68
2022/07/05 03:11:51;;;;;;;;;;;;;;;17.17;100.00;99399.92;1709903;83;21049;-68
2022/07/05 03:14:17;;;;;;;;;;;;;;;17.25;100.00;99396.14;1709652;83;20490;-68
2022/07/05 03:16:44;;;;;;;;;;;;;;;17.33;100.00;99401.25;1709561;84;20076;-68
2022/07/05 03:19:11;;;;;;;;;;;;;;;17.41;100.00;99403.78;1709457;84;20430;-68
2022/07/05 03:21:38;;;;;;;;;;;;;;;17.50;100.00;99409.13;1709538;83;20415;-68
2022/07/05 03:24:05;;;;;;;;;;;;;;;17.59;100.00;99401.38;1709643;84;21134;-68
2022/07/05 03:26:31;;;;;;;;;;;;;;;17.70;100.00;99406.59;1709645;83;20438;-68
2022/07/05 03:28:58;;;;;;;;;;;;;;;17.84;100.00;99399.71;1709625;83;20111;-68
2022/07/05 03:31:25;;;;;;;;;;;;;;;17.98;100.00;99402.73;1709660;83;20654;-68
2022/07/05 03:33:51;;;;;;;;;;;;;;;18.11;100.00;99401.38;1711831;82;20517;-68
2022/07/05 03:36:18;;;;;;;;;;;;;;;18.25;100.00;99399.45;1722582;82;21150;-68
2022/07/05 03:38:45;;;;;;;;;;;;;;;18.39;100.00;99404.67;1709826;84;20190;-68
2022/07/05 03:41:11;;;;;;;;;;;;;;;18.55;100.00;99404.50;1710111;84;20120;-68
2022/07/05 03:43:37;;;;;;;;;;;;;;;18.70;100.00;99405.57;1710071;83;20367;-68
2022/07/05 03:46:06;;;;;;;;;;;;;;;18.85;100.00;99404.61;1709890;84;20091;-68
2022/07/05 03:48:33;;;;;;;;;;;;;;;18.99;100.00;99405.42;1709970;83;20995;-68
2022/07/05 03:51:00;;;;;;;;;;;;;;;19.13;100.00;99403.61;1710074;83;20190;-68
2022/07/05 03:53:26;;;;;;;;;;;;;;;19.27;100.00;99399.42;1709942;84;20084;-68
2022/07/05 03:55:53;;;;;;;;;;;;;;;19.40;99.15;99409.14;1709920;83;20438;-68
2022/07/05 03:58:19;;;;;;;;;;;;;;;19.50;97.54;99400.13;1687809;84;20485;-68
2022/07/05 04:00:47;;;;;;;;;;;;;;;19.63;95.97;99401.51;1709896;83;20466;-68
2022/07/05 04:03:15;;;;;;;;;;;;;;;19.74;95.59;99399.63;1709973;83;20119;-68
2022/07/05 04:05:42;;;;;;;;;;;;;;;19.89;93.84;99401.17;1709825;84;20084;-68
2022/07/05 04:08:08;;;;;;;;;;;;;;;20.00;92.47;99390.95;1709891;84;20547;-68
2022/07/05 04:10:37;;;;;;;;;;;;;;;20.12;91.97;99396.25;1709833;84;20116;-68
2022/07/05 04:13:03;;;;;;;;;;;;;;;20.21;90.92;99393.95;1709963;83;21109;-70
2022/07/05 04:15:29;;;;;;;;;;;;;;;20.35;89.87;99400.22;1709782;83;20147;-69
2022/07/05 04:17:57;;;;;;;;;;;;;;;20.48;89.71;99403.55;1709816;84;20442;-69
2022/07/05 04:20:25;;;;;;;;;;;;;;;20.59;89.52;99398.86;1709948;83;20434;-70
2022/07/05 04:22:52;;;;;;;;;;;;;;;20.72;88.99;99402.36;1709817;84;20087;-69
2022/07/05 04:25:19;;;;;;;;;;;;;;;20.83;89.04;99401.02;1687888;84;21036;-68
2022/07/05 04:27:49;;;;;;;;;;;;;;;20.95;88.74;99404.09;1709356;84;20168;-69
2022/07/05 04:30:16;;;;;;;;;;;;;;;21.04;87.49;99395.58;1687658;84;20083;-69
2022/07/05 04:32:43;;;;;;;;;;;;;;;21.14;86.57;99403.01;1709903;84;20095;-68
2022/07/05 04:35:10;;;;;;;;;;;;;;;21.21;85.25;99405.84;1709757;84;20171;-68
2022/07/05 04:37:37;;;;;;;;;;;;;;;21.29;85.21;99408.91;1709886;84;21551;-68
2022/07/05 04:40:06;;;;;;;;;;;;;;;21.40;84.78;99404.15;1710072;83;20144;-68
2022/07/05 04:42:32;;;;;;;;;;;;;;;21.46;83.39;99392.02;1723144;82;20420;-68
2022/07/05 04:44:59;;;;;;;;;;;;;;;21.51;81.16;99402.21;1717352;82;20376;-70
2022/07/05 04:47:28;;;;;;;;;;;;;;;21.57;80.93;99406.23;1739599;82;20081;-69
2022/07/05 04:49:57;;;;;;;;;;;;;;;21.66;80.95;99406.66;1739306;82;21149;-69
2022/07/05 04:52:24;;;;;;;;;;;;;;;21.78;80.20;99403.31;1739269;82;20436;-70
2022/07/05 04:54:51;;;;;;;;;;;;;;;21.87;80.32;99403.14;1739289;82;20085;-67
2022/07/05 04:57:17;;;;;;;;;;;;;;;21.94;79.27;99399.57;1738570;81;20119;-70
2022/07/05 04:59:43;;;;;;;;;;;;;;;22.02;79.41;99401.19;1738709;82;20151;-69
2022/07/05 05:02:10;;;;;;;;;;;;;;;22.13;79.55;99406.20;1739010;82;21132;-67
2022/07/05 05:04:36;;;;;;;;;;;;;;;22.23;78.15;99408.22;1709532;82;20120;-68
2022/07/05 05:07:04;;;;;;;;;;;;;;;22.29;78.42;99410.83;1709341;84;20140;-70
2022/07/05 05:09:31;;;;;;;;;;;;;;;22.37;77.38;99411.03;1715848;82;20733;-71
2022/07/05 05:11:58;;;;;;;;;;;;;;;22.46;77.28;99409.84;1738741;82;20093;-72
2022/07/05 05:14:25;;;;;;;;;;;;;;;22.52;77.50;99411.05;1725244;82;21526;-74
2022/07/05 05:16:52;;;;;;;;;;;;;;;22.61;76.65;99414.22;1706088;82;20154;-70
2022/07/05 05:19:20;;;;;;;;;;;;;;;22.70;77.40;99414.61;1714031;82;20486;-71
2022/07/05 05:21:47;;;;;;;;;;;;;;;22.80;77.14;99420.84;1709247;84;20095;-68
2022/07/05 05:24:14;;;;;;;;;;;;;;;22.89;76.35;99415.63;1708527;84;20210;-68
2022/07/05 05:26:40;;;;;;;;;;;;;;;23.00;75.43;99419.82;1707314;82;21086;-73
2022/07/05 05:29:07;;;;;;;;;;;;;;;23.08;75.36;99420.01;1708863;82;20100;-72
2022/07/05 05:31:33;;;;;;;;;;;;;;;23.18;76.28;99423.95;1709391;84;20123;-73
2022/07/05 05:34:01;;;;;;;;;;;;;;;23.31;75.85;99423.13;1709171;84;20115;-72
2022/07/05 05:36:28;;;;;;;;;;;;;;;23.43;75.06;99423.30;1709133;84;20435;-72
2022/07/05 05:38:55;;;;;;;;;;;;;;;23.48;74.01;99414.48;1709256;84;21538;-71
2022/07/05 05:41:21;;;;;;;;;;;;;;;23.56;74.70;99416.68;1707345;84;20461;-72
2022/07/05 05:43:48;;;;;;;;;;;;;;;23.65;74.67;99421.25;1709190;84;20112;-68
2022/07/05 05:46:15;;;;;;;;;;;;;;;23.77;75.19;99419.97;1709266;84;20626;-69
2022/07/05 05:48:41;;;;;;;;;;;;;;;23.90;75.62;99416.91;1709289;84;20120;-68
2022/07/05 05:51:08;;;;;;;;;;;;;;;24.04;73.64;99417.62;1709275;84;21141;-70
2022/07/05 05:53:34;;;;;;;;;;;;;;;24.15;73.97;99418.96;1709139;84;20084;-71
2022/07/05 05:56:03;;;;;;;;;;;;;;;24.30;73.25;99416.27;1709339;84;20143;-70
2022/07/05 05:58:30;;;;;;;;;;;;;;;24.43;71.85;99417.98;1709217;84;20106;-68
2022/07/05 06:00:56;;;;;;;;;;;;;;;24.55;71.75;99425.11;1709512;84;20083;-70
2022/07/05 06:03:24;;;;;;;;;;;;;;;24.69;71.14;99417.98;1709257;84;21490;-73
2022/07/05 06:05:51;;;;;;;;;;;;;;;24.82;69.53;99423.89;1709266;82;20096;-71
2022/07/05 06:08:19;;;;;;;;;;;;;;;24.94;68.38;99417.73;1709168;84;20434;-72
2022/07/05 06:10:45;;;;;;;;;;;;;;;25.05;68.82;99421.87;1709459;82;20431;-72
2022/07/05 06:13:13;;;;;;;;;;;;;;;25.15;67.92;99416.14;1709466;84;20099;-71
2022/07/05 06:15:40;;;;;;;;;;;;;;;25.28;67.58;99415.80;1709673;84;21091;-72
2022/07/05 06:18:09;;;;;;;;;;;;;;;25.37;67.23;99420.93;1709342;84;20454;-73
2022/07/05 06:20:37;;;;;;;;;;;;;;;25.49;68.15;99414.73;1709344;84;20481;-74
2022/07/05 06:23:04;;;;;;;;;;;;;;;25.64;67.30;99413.38;1709587;84;20091;-71
2022/07/05 06:25:32;;;;;;;;;;;;;;;25.79;67.17;99408.98;1709312;84;20148;-68
2022/07/05 06:28:06;;;;;;;;;;;;;;;25.93;66.95;99412.41;1709223;84;21119;-71
2022/07/05 06:30:34;;;;;;;;;;;;;;;26.09;68.03;99411.76;1729477;82;20460;-71
2022/07/05 06:33:00;;;;;;;;;;;;;;;26.23;64.69;99411.55;1738808;82;20094;-70
2022/07/05 06:35:28;;;;;;;;;;;;;;;26.29;63.61;99401.41;1738728;82;20117;-72
2022/07/05 06:37:57;;;;;;;;;;;;;;;26.38;63.67;99403.72;1738818;82;20105;-71
2022/07/05 06:40:28;;;;;;;;;;;;;;;26.52;63.25;99402.70;1738811;82;21133;-68
2022/07/05 06:42:57;;;;;;;;;;;;;;;26.66;60.92;99399.63;1712497;82;20459;-68
2022/07/05 06:45:26;;;;;;;;;;;;;;;26.71;58.73;99399.14;1708643;84;20107;-71
2022/07/05 06:48:01;;;;;;;;;;;;;;;26.79;59.24;99407.64;1709583;84;20357;-71
2022/07/05 06:50:28;;;;;;;;;;;;;;;26.91;60.32;99410.46;1709503;84;20138;-71
2022/07/05 06:52:55;;;;;;;;;;;;;;;27.02;57.64;99410.30;1709572;84;21492;-71
2022/07/05 06:55:21;;;;;;;;;;;;;;;27.11;56.91;99411.95;1709320;84;20124;-71
2022/07/05 06:57:48;;;;;;;;;;;;;;;27.21;55.05;99412.33;1709265;84;20172;-71
2022/07/05 07:00:22;;;;;;;;;;;;;;;27.29;55.43;99410.97;1709606;84;20115;-71
2022/07/05 07:02:48;;;;;;;;;;;;;;;27.42;54.82;99404.88;1708993;82;20131;-71
2022/07/05 07:05:19;;;;;;;;;;;;;;;27.55;54.79;99406.44;1707813;84;22198;-71
2022/07/05 07:10:39;;;;;;;;;;;;;;;27.76;54.30;99405.20;1706439;84;20168;-71
2022/07/05 07:13:07;;;;;;;;;;;;;;;27.94;55.19;99406.40;1709284;84;20674;-72
2022/07/05 07:15:42;;;;;;;;;;;;;;;28.09;53.30;99401.23;1690164;84;20449;-72
2022/07/05 07:18:19;;;;;;;;;;;;;;;28.19;52.60;99405.84;1677279;85;21265;-73
2022/07/05 07:20:52;;;;;;;;;;;;;;;28.23;50.32;99401.56;1674197;84;20091;-71
2022/07/05 07:23:19;;;;;;;;;;;;;;;28.28;50.70;99398.22;1710784;82;20104;-70
2022/07/05 07:25:50;;;;;;;;;;;;;;;28.40;51.65;99403.75;1690607;84;20403;-70
2022/07/05 07:28:19;;;;;;;;;;;;;;;28.54;50.81;99406.23;1708005;84;20087;-71
2022/07/05 07:30:49;;;;;;;;;;;;;;;28.66;50.40;99397.67;1709263;84;21172;-71
2022/07/05 07:33:20;;;;;;;;;;;;;;;28.76;49.66;99397.41;1690237;84;20147;-70
2022/07/05 07:35:55;;;;;;;;;;;;;;;28.84;49.96;99398.05;1689449;84;20151;-70
2022/07/05 07:38:19;;;;;;;;;;;;;;;28.93;49.38;99392.53;1709285;84;20677;-70
2022/07/05 07:40:50;;;;;;;;;;;;;;;29.04;49.06;99395.88;1691216;84;20482;-70
2022/07/05 07:43:18;;;;;;;;;;;;;;;29.09;47.77;99391.09;1709455;84;21124;-70
2022/07/05 07:45:49;;;;;;;;;;;;;;;29.14;48.47;99396.83;1689862;84;20083;-70
2022/07/05 07:48:24;;;;;;;;;;;;;;;29.28;48.98;99397.84;1689333;84;20103;-71
2022/07/05 07:50:53;;;;;;;;;;;;;;;29.48;48.53;99394.25;1690166;84;20096;-72
2022/07/05 07:53:23;;;;;;;;;;;;;;;29.64;46.71;99384.91;1709436;82;20123;-72
2022/07/05 07:55:56;;;;;;;;;;;;;;;29.69;47.35;99387.18;1709401;84;20765;-72
2022/07/05 07:58:23;;;;;;;;;;;;;;;29.78;47.13;99387.31;1707967;84;20508;-72
2022/07/05 08:01:01;;;;;;;;;;;;;;;29.75;45.06;99386.00;1709280;82;20108;-75
2022/07/05 08:03:28;;;;;;;;;;;;;;;29.71;44.69;99385.32;1677502;85;20696;-73
2022/07/05 08:05:59;;;;;;;;;;;;;;;29.75;45.22;99377.52;1674116;84;20147;-73
2022/07/05 08:08:27;;;;;;;;;;;;;;;29.91;45.88;99385.92;1735798;82;21178;-74
2022/07/05 08:10:56;;;;;;;;;;;;;;;30.03;44.50;99389.42;1709261;84;20506;-75
2022/07/05 08:13:22;;;;;;;;;;;;;;;30.12;43.81;99381.64;1709171;84;20084;-75
2022/07/05 08:15:49;;;;;;;;;;;;;;;30.23;42.46;99383.51;1709554;82;20369;-75
2022/07/05 08:23:49;;;;;;;;;;;;;;;30.84;41.89;99370.34;1709413;84;20436;-74
2022/07/05 08:26:30;;;;;;;;;;;;;;;31.29;40.42;99369.78;1713161;82;20147;-75
2022/07/05 08:28:55;;;;;;;;;;;;;;;31.71;38.29;99368.22;1717393;82;20589;-72
2022/07/05 08:31:22;;;;;;;;;;;;;;;32.10;37.22;99377.23;1723371;82;20163;-71
2022/07/05 08:33:52;;;;;;;;;;;;;;;32.42;37.22;99374.52;1726739;82;21133;-74
2022/07/05 08:36:19;;;;;;;;;;;;;;;32.39;35.94;99374.03;1709070;83;20418;-74
2022/07/05 08:38:53;;;;;;;;;;;;;;;32.27;36.60;99368.66;1709308;84;20152;-71
2022/07/05 08:41:19;;;;;;;;;;;;;;;32.27;36.33;99370.70;1685165;83;20090;-73
2022/07/05 08:43:51;;;;;;;;;;;;;;;32.32;35.58;99368.67;1673311;84;20133;-73
2022/07/05 08:46:21;;;;;;;;;;;;;;;32.29;35.53;99376.70;1685791;84;20725;-73
2022/07/05 08:48:55;;;;;;;;;;;;;;;32.27;35.79;99369.28;1701278;84;20164;-75
2022/07/05 08:51:25;;;;;;;;;;;;;;;32.02;34.61;99371.05;1707886;84;20121;-74
2022/07/05 08:53:51;;;;;;;;;;;;;;;31.92;36.32;99376.52;1685669;84;20201;-75
2022/07/05 08:56:21;;;;;;;;;;;;;;;32.14;36.38;99375.04;1709305;84;20097;-77
2022/07/05 08:58:52;;;;;;;;;;;;;;;32.52;37.30;99373.28;1681770;84;20093;-73
2022/07/05 09:01:21;;;;;;;;;;;;;;;32.90;34.95;99371.50;1708886;83;20113;-73
2022/07/05 09:03:51;;;;;;;;;;;;;;;33.07;33.58;99367.69;1712996;82;20514;-73
2022/07/05 09:06:21;;;;;;;;;;;;;;;33.11;34.36;99367.69;1722819;82;20069;-74
2022/07/05 09:08:56;;;;;;;;;;;;;;;33.31;33.06;99365.82;1711665;82;20461;-75
2022/07/05 09:11:26;;;;;;;;;;;;;;;33.56;32.18;99373.83;1708120;84;21167;-75
2022/07/05 09:13:59;;;;;;;;;;;;;;;33.85;33.24;99367.63;1709663;82;20122;-73
2022/07/05 09:16:25;;;;;;;;;;;;;;;34.06;31.97;99375.16;1711745;82;20080;-73
2022/07/05 09:18:59;;;;;;;;;;;;;;;34.15;31.20;99375.09;1728073;82;20484;-72
2022/07/05 09:21:26;;;;;;;;;;;;;;;34.13;30.87;99375.58;1735263;82;20094;-71
2022/07/05 09:24:09;;;;;;;;;;;;;;;34.24;31.73;99370.78;1737200;82;21158;-72
2022/07/05 09:26:41;;;;;;;;;;;;;;;34.41;30.29;99376.27;1688647;84;20179;-75
2022/07/05 09:29:14;;;;;;;;;;;;;;;34.49;29.46;99372.44;1708988;84;20461;-75
2022/07/05 09:31:48;;;;;;;;;;;;;;;34.44;29.97;99373.09;1736065;81;20111;-72
2022/07/05 09:34:15;;;;;;;;;;;;;;;34.45;29.01;99370.39;1717606;82;20414;-72
2022/07/05 09:36:59;;;;;;;;;;;;;;;34.59;30.50;99366.05;1678175;83;22381;-73
2022/07/05 09:39:35;;;;;;;;;;;;;;;34.79;29.61;99364.78;1683948;84;20097;-73
2022/07/05 09:42:20;;;;;;;;;;;;;;;34.82;30.89;99367.33;1689677;85;20116;-76
2022/07/05 09:44:56;;;;;;;;;;;;;;;34.88;30.94;99370.45;1721087;83;20095;-77
2022/07/05 09:47:32;;;;;;;;;;;;;;;35.07;30.03;99369.67;1709070;84;20123;-77
2022/07/05 09:50:13;;;;;;;;;;;;;;;35.08;28.76;99371.25;1709444;82;21170;-76
2022/07/05 09:52:40;;;;;;;;;;;;;;;35.03;27.82;99370.50;1737096;82;20129;-76
2022/07/05 09:55:20;;;;;;;;;;;;;;;34.93;29.20;99365.50;1730480;82;20125;-75
2022/07/05 09:57:53;;;;;;;;;;;;;;;35.05;28.44;99370.80;1718619;82;20460;-73
2022/07/05 10:00:19;;;;;;;;;;;;;;;34.98;29.24;99363.41;1729878;81;20116;-73
2022/07/05 10:02:58;;;;;;;;;;;;;;;34.99;29.10;99367.05;1738866;82;21203;-73
2022/07/05 10:05:26;;;;;;;;;;;;;;;35.06;28.72;99358.91;1715837;82;20436;-72
2022/07/05 10:08:00;;;;;;;;;;;;;;;35.04;29.24;99359.23;1738749;81;20141;-71
2022/07/05 10:10:33;;;;;;;;;;;;;;;35.17;28.04;99354.70;1739137;81;20162;-71
2022/07/05 10:13:02;;;;;;;;;;;;;;;35.26;29.41;99355.38;1739324;81;20441;-72
2022/07/05 10:15:30;;;;;;;;;;;;;;;35.26;29.17;99358.23;1739357;82;21798;-77
2022/07/05 10:18:10;;;;;;;;;;;;;;;35.20;27.79;99357.36;1715791;82;20173;-77
2022/07/05 10:20:43;;;;;;;;;;;;;;;35.03;27.86;99347.68;1738791;82;20172;-78
2022/07/05 10:23:17;;;;;;;;;;;;;;;34.83;28.83;99350.37;1738993;81;20098;-74
2022/07/05 10:25:48;;;;;;;;;;;;;;;34.88;28.05;99346.20;1739208;82;20083;-79
2022/07/05 10:28:17;;;;;;;;;;;;;;;35.00;28.87;99345.80;1739078;82;21782;-76
2022/07/05 10:30:54;;;;;;;;;;;;;;;35.26;28.94;99333.98;1738960;82;20070;-80
2022/07/05 10:33:27;;;;;;;;;;;;;;;35.66;28.25;99335.52;1739289;81;20109;-74
2022/07/05 10:35:58;;;;;;;;;;;;;;;36.03;27.96;99343.80;1739448;82;20564;-79
2022/07/05 10:38:32;;;;;;;;;;;;;;;36.18;27.52;99348.06;1739094;82;20140;-72
2022/07/05 10:41:13;;;;;;;;;;;;;;;36.40;28.02;99337.61;1739009;81;20128;-72
2022/07/05 10:43:41;;;;;;;;;;;;;;;36.57;25.96;99341.50;1715288;82;20144;-71
2022/07/05 10:46:13;;;;;;;;;;;;;;;36.34;26.79;99336.77;1716034;82;20078;-71
2022/07/05 10:48:41;;;;;;;;;;;;;;;36.18;25.81;99340.92;1711862;82;20136;-75
2022/07/05 10:51:14;;;;;;;;;;;;;;;36.23;25.78;99339.44;1739492;82;20086;-71
2022/07/05 10:53:45;;;;;;;;;;;;;;;36.17;25.77;99334.27;1739345;81;20085;-71
2022/07/05 10:56:12;;;;;;;;;;;;;;;35.95;26.09;99334.70;1739652;81;20117;-71
2022/07/05 10:58:47;;;;;;;;;;;;;;;35.91;25.71;99332.69;1739145;82;20105;-72
2022/07/05 11:01:23;;;;;;;;;;;;;;;35.87;26.34;99327.82;1738522;82;20090;-73
2022/07/05 11:04:02;;;;;;;;;;;;;;;35.89;25.61;99326.69;1738799;82;20448;-73
2022/07/05 11:06:42;;;;;;;;;;;;;;;35.95;26.66;99322.64;1738798;82;21150;-74
2022/07/05 11:09:14;;;;;;;;;;;;;;;36.08;25.83;99325.82;1738198;82;20117;-79
2022/07/05 11:11:49;;;;;;;;;;;;;;;36.09;25.79;99327.40;1730805;80;20427;-84
2022/07/05 11:14:25;;;;;;;;;;;;;;;36.09;25.60;99325.33;1724016;82;20413;-75
2022/07/05 11:17:22;;;;;;;;;;;;;;;36.10;25.33;99322.62;1738692;82;20160;-74
2022/07/05 11:20:11;;;;;;;;;;;;;;;36.18;24.97;99320.13;1738705;82;21148;-78
2022/07/05 11:22:41;;;;;;;;;;;;;;;36.19;25.61;99316.78;1738898;82;20105;-75
2022/07/05 11:25:10;;;;;;;;;;;;;;;36.28;24.83;99313.04;1736616;82;20082;-76
2022/07/05 11:28:03;;;;;;;;;;;;;;;36.27;25.08;99310.83;1738457;82;20090;-76
2022/07/05 11:30:47;;;;;;;;;;;;;;;36.23;24.53;99308.79;1737385;82;20428;-78
2022/07/05 11:33:38;;;;;;;;;;;;;;;36.09;25.03;99313.90;1738249;82;23043;-74
2022/07/05 11:36:22;;;;;;;;;;;;;;;35.92;24.23;99306.49;1737916;82;20081;-73
2022/07/05 11:39:12;;;;;;;;;;;;;;;35.72;26.13;99300.06;1738425;82;20136;-73
2022/07/05 11:41:42;;;;;;;;;;;;;;;35.81;26.05;99301.27;1737152;82;20128;-72
2022/07/05 11:44:08;;;;;;;;;;;;;;;35.92;25.60;99298.56;1719603;82;20117;-73
2022/07/05 11:46:43;;;;;;;;;;;;;;;35.94;25.18;99297.43;1737712;82;21274;-73
2022/07/05 11:49:28;;;;;;;;;;;;;;;35.94;25.11;99298.22;1738700;82;20097;-73
2022/07/05 11:51:59;;;;;;;;;;;;;;;36.05;26.33;99297.61;1709485;82;20121;-79
2022/07/05 11:54:27;;;;;;;;;;;;;;;36.23;25.05;99290.22;1729191;82;20145;-72
2022/07/05 11:56:56;;;;;;;;;;;;;;;36.24;26.38;99290.36;1739101;81;20090;-74
2022/07/05 11:59:23;;;;;;;;;;;;;;;36.38;26.53;99291.63;1735308;82;21188;-74
2022/07/05 12:01:52;;;;;;;;;;;;;;;36.58;24.62;99287.32;1738673;82;20098;-75
2022/07/05 12:04:28;;;;;;;;;;;;;;;36.67;24.56;99284.96;1738440;82;20097;-74
2022/07/05 12:06:57;;;;;;;;;;;;;;;36.89;24.47;99291.63;1738724;82;20686;-73
2022/07/05 12:15:15;;;;;;;;;;;;;;;37.23;23.32;99281.34;1719460;82;20411;-74
2022/07/05 12:17:47;;;;;;;;;;;;;;;37.46;23.39;99277.40;1737493;82;20081;-78
2022/07/05 12:20:27;;;;;;;;;;;;;;;37.81;24.06;99277.82;1738790;82;20629;-75
2022/07/05 12:22:56;;;;;;;;;;;;;;;37.96;22.46;99282.11;1738582;82;20146;-75
2022/07/05 12:25:24;;;;;;;;;;;;;;;37.91;23.51;99285.72;1738853;82;22211;-76
2022/07/05 12:27:56;;;;;;;;;;;;;;;37.78;22.54;99286.00;1738651;82;20081;-72
2022/07/05 12:30:20;;;;;;;;;;;;;;;37.66;23.63;99286.52;1738799;82;20113;-74
2022/07/05 12:33:05;;;;;;;;;;;;;;;37.57;22.46;99284.63;1738652;82;20678;-75
2022/07/05 12:35:35;;;;;;;;;;;;;;;37.43;23.22;99280.48;1738771;82;20470;-73
2022/07/05 12:38:19;;;;;;;;;;;;;;;37.17;22.78;99279.81;1732583;81;21558;-72
2022/07/05 12:41:04;;;;;;;;;;;;;;;36.97;23.15;99277.03;1729537;82;20097;-78
2022/07/05 12:46:19;;;;;;;;;;;;;;;37.10;23.51;99275.19;1633729;87;20142;-77
2022/07/05 12:48:53;;;;;;;;;;;;;;;37.07;22.55;99265.53;1672668;84;20102;-76
2022/07/05 12:51:35;;;;;;;;;;;;;;;36.81;23.68;99269.04;1739527;81;21246;-74
2022/07/05 12:59:37;;;;;;;;;;;;;;;36.60;24.64;99263.30;1748536;81;20116;-74
2022/07/05 13:02:04;;;;;;;;;;;;;;;37.04;23.29;99255.09;1761509;81;20116;-73
2022/07/05 13:04:31;;;;;;;;;;;;;;;37.53;22.91;99256.11;1761262;81;21518;-75
2022/07/05 13:07:00;;;;;;;;;;;;;;;37.93;23.38;99250.83;1761102;81;20120;-77
2022/07/05 13:09:32;;;;;;;;;;;;;;;38.29;23.30;99250.66;1761222;81;20119;-74
2022/07/05 13:12:21;;;;;;;;;;;;;;;38.75;23.16;99246.69;1761128;81;20104;-75
2022/07/05 13:14:48;;;;;;;;;;;;;;;39.14;21.97;99238.20;1752186;80;20076;-74
2022/07/05 13:17:22;;;;;;;;;;;;;;;39.12;22.41;99237.29;1740189;81;20147;-75
2022/07/05 13:19:51;;;;;;;;;;;;;;;39.02;21.43;99244.58;1709190;83;20519;-75